createdAt,value
2023-05-19T00:02:26.213Z,10.00
2023-05-19T00:04:53.318Z,9.98
2023-05-19T00:07:28.976Z,10.06
2023-05-19T00:09:55.958Z,10.06
2023-05-19T00:12:23.532Z,10.04
2023-05-19T00:14:50.623Z,10.04
2023-05-19T00:17:17.589Z,10.05
2023-05-19T00:19:45.211Z,10.03
2023-05-19T00:22:12.014Z,10.00
2023-05-19T00:24:38.736Z,10.02
2023-05-19T00:27:05.780Z,9.97
2023-05-19T00:29:32.600Z,9.97
2023-05-19T00:31:59.352Z,9.95
2023-05-19T00:34:26.283Z,9.98
2023-05-19T00:36:53.067Z,9.94
2023-05-19T00:39:19.712Z,9.92
2023-05-19T00:41:46.489Z,9.88
2023-05-19T00:44:13.152Z,9.84
2023-05-19T00:46:39.952Z,9.79
2023-05-19T00:49:06.634Z,9.76
2023-05-19T00:51:33.446Z,9.78
2023-05-19T00:54:00.325Z,9.81
2023-05-19T00:56:27.179Z,9.76
2023-05-19T00:58:55.074Z,9.65
2023-05-19T01:01:22.652Z,9.64
2023-05-19T01:03:49.993Z,9.55
2023-05-19T01:06:19.258Z,9.49
2023-05-19T01:08:46.529Z,9.46
2023-05-19T01:11:13.234Z,9.38
2023-05-19T01:13:41.958Z,9.35
2023-05-19T01:16:21.458Z,9.30
2023-05-19T01:19:02.848Z,9.24
2023-05-19T01:21:51.700Z,9.28
2023-05-19T01:24:33.691Z,9.27
2023-05-19T01:27:15.567Z,9.32
2023-05-19T01:30:10.695Z,9.33
2023-05-19T01:32:41.369Z,9.34
2023-05-19T01:35:10.121Z,9.36
2023-05-19T01:37:39.125Z,9.39
2023-05-19T01:40:10.095Z,9.40
2023-05-19T01:42:40.061Z,9.40
2023-05-19T01:45:10.696Z,9.39
2023-05-19T01:47:41.332Z,9.38
2023-05-19T01:50:08.607Z,9.42
2023-05-19T01:52:35.481Z,9.46
2023-05-19T01:55:02.242Z,9.48
2023-05-19T01:58:01.492Z,9.49
2023-05-19T02:00:50.172Z,9.42
2023-05-19T02:03:56.518Z,9.42
2023-05-19T02:06:36.162Z,9.31
2023-05-19T02:09:13.920Z,9.30
2023-05-19T02:12:04.987Z,9.37
2023-05-19T02:14:41.101Z,9.36
2023-05-19T02:17:09.491Z,9.31
2023-05-19T02:19:40.130Z,9.25
2023-05-19T02:22:07.078Z,9.24
2023-05-19T02:24:33.952Z,9.22
2023-05-19T02:27:01.050Z,9.20
2023-05-19T02:29:27.724Z,9.17
2023-05-19T02:31:54.613Z,9.21
2023-05-19T02:34:21.390Z,9.26
2023-05-19T02:36:49.984Z,9.21
2023-05-19T02:39:16.760Z,9.20
2023-05-19T02:41:43.517Z,9.09
2023-05-19T02:44:10.260Z,9.21
2023-05-19T02:46:37.090Z,9.25
2023-05-19T02:49:04.051Z,9.28
2023-05-19T02:51:30.763Z,9.20
2023-05-19T02:53:57.588Z,9.22
2023-05-19T02:56:24.397Z,9.19
2023-05-19T02:58:52.741Z,9.18
2023-05-19T03:01:22.178Z,9.21
2023-05-19T03:03:49.289Z,9.23
2023-05-19T03:06:18.143Z,9.21
2023-05-19T03:08:45.131Z,9.23
2023-05-19T03:11:11.888Z,9.19
2023-05-19T03:13:38.735Z,9.18
2023-05-19T03:16:08.053Z,9.20
2023-05-19T03:18:35.346Z,9.20
2023-05-19T03:21:02.045Z,9.20
2023-05-19T03:23:28.725Z,9.23
2023-05-19T03:25:56.430Z,9.20
2023-05-19T03:28:23.509Z,9.25
2023-05-19T03:30:50.911Z,9.20
2023-05-19T03:33:20.858Z,9.18
2023-05-19T03:35:47.809Z,9.13
2023-05-19T03:38:15.458Z,9.12
2023-05-19T03:40:49.558Z,9.10
2023-05-19T03:43:16.358Z,9.11
2023-05-19T03:45:49.038Z,9.11
2023-05-19T03:48:41.441Z,9.12
2023-05-19T03:51:13.960Z,9.14
2023-05-19T03:53:41.314Z,9.16
2023-05-19T03:56:08.273Z,9.10
2023-05-19T03:58:37.025Z,9.02
2023-05-19T04:01:03.834Z,9.15
2023-05-19T04:03:30.763Z,9.12
2023-05-19T04:05:57.616Z,9.16
2023-05-19T04:08:24.298Z,9.12
2023-05-19T04:10:51.001Z,9.09
2023-05-19T04:13:17.663Z,9.05
2023-05-19T04:15:44.489Z,8.99
2023-05-19T04:18:11.292Z,8.98
2023-05-19T04:20:40.251Z,8.93
2023-05-19T04:23:06.946Z,8.99
2023-05-19T04:25:35.972Z,8.95
2023-05-19T04:28:03.144Z,9.01
2023-05-19T04:30:31.197Z,8.97
2023-05-19T04:32:59.295Z,9.03
2023-05-19T04:35:26.024Z,9.10
2023-05-19T04:37:54.474Z,9.08
2023-05-19T04:40:26.069Z,9.14
2023-05-19T04:42:54.189Z,9.11
2023-05-19T04:45:20.996Z,9.13
2023-05-19T04:47:50.787Z,9.10
2023-05-19T04:50:17.639Z,9.14
2023-05-19T04:52:47.375Z,9.15
2023-05-19T04:55:15.317Z,9.14
2023-05-19T04:57:42.168Z,9.18
2023-05-19T05:00:12.874Z,9.21
2023-05-19T05:02:51.772Z,9.29
2023-05-19T05:05:21.168Z,9.38
2023-05-19T05:07:47.948Z,9.42
2023-05-19T05:10:15.098Z,9.42
2023-05-19T05:12:42.057Z,9.52
2023-05-19T05:15:09.700Z,9.59
2023-05-19T05:17:38.623Z,9.65
2023-05-19T05:20:06.966Z,9.72
2023-05-19T05:22:34.208Z,9.73
2023-05-19T05:25:02.017Z,9.67
2023-05-19T05:27:28.921Z,9.72
2023-05-19T05:29:57.379Z,9.81
2023-05-19T05:32:26.699Z,9.71
2023-05-19T05:34:54.606Z,9.75
2023-05-19T05:37:22.038Z,9.86
2023-05-19T05:39:48.845Z,9.85
2023-05-19T05:42:16.209Z,9.94
2023-05-19T05:44:43.472Z,9.96
2023-05-19T05:47:12.070Z,9.97
2023-05-19T05:49:40.458Z,9.94
2023-05-19T05:52:09.405Z,9.91
2023-05-19T05:54:42.845Z,10.04
2023-05-19T05:57:10.810Z,10.04
2023-05-19T05:59:38.673Z,10.03
2023-05-19T06:02:05.670Z,10.09
2023-05-19T06:04:33.498Z,10.31
2023-05-19T06:07:01.832Z,10.56
2023-05-19T06:09:33.102Z,10.55
2023-05-19T06:12:00.648Z,10.51
2023-05-19T06:14:31.109Z,10.54
2023-05-19T06:17:09.801Z,10.37
2023-05-19T06:19:36.557Z,10.37
2023-05-19T06:22:03.350Z,10.39
2023-05-19T06:24:30.772Z,10.52
2023-05-19T06:26:57.505Z,10.45
2023-05-19T06:29:24.364Z,10.45
2023-05-19T06:31:53.153Z,10.45
2023-05-19T06:34:21.175Z,10.48
2023-05-19T06:36:48.082Z,10.39
2023-05-19T06:39:15.628Z,10.41
2023-05-19T06:41:42.377Z,10.32
2023-05-19T06:44:09.273Z,10.22
2023-05-19T06:46:36.071Z,10.27
2023-05-19T06:49:05.134Z,10.17
2023-05-19T06:51:36.963Z,10.23
2023-05-19T06:54:04.222Z,10.12
2023-05-19T06:56:31.018Z,10.11
2023-05-19T06:58:57.733Z,10.19
2023-05-19T07:01:31.047Z,10.28
2023-05-19T07:03:59.077Z,10.42
2023-05-19T07:06:26.184Z,10.51
2023-05-19T07:08:52.915Z,10.59
2023-05-19T07:11:20.125Z,10.53
2023-05-19T07:13:47.708Z,10.51
2023-05-19T07:16:20.480Z,10.64
2023-05-19T07:18:47.208Z,10.63
2023-05-19T07:21:13.918Z,10.48
2023-05-19T07:23:40.681Z,10.38
2023-05-19T07:26:07.372Z,10.56
2023-05-19T07:28:34.518Z,10.76
2023-05-19T07:31:01.533Z,10.91
2023-05-19T07:33:28.273Z,11.04
2023-05-19T07:35:55.049Z,11.12
2023-05-19T07:38:21.791Z,11.23
2023-05-19T07:40:48.560Z,11.24
2023-05-19T07:43:15.245Z,11.31
2023-05-19T07:45:41.958Z,11.40
2023-05-19T07:48:08.975Z,11.45
2023-05-19T07:50:35.856Z,11.47
2023-05-19T07:53:02.751Z,11.34
2023-05-19T07:55:29.434Z,11.43
2023-05-19T07:57:56.325Z,11.58
2023-05-19T08:00:23.217Z,11.55
2023-05-19T08:02:50.023Z,11.71
2023-05-19T08:05:17.329Z,12.03
2023-05-19T08:07:44.083Z,12.24
2023-05-19T08:10:10.926Z,12.31
2023-05-19T08:12:37.642Z,12.36
2023-05-19T08:15:04.896Z,12.58
2023-05-19T08:17:31.684Z,12.86
2023-05-19T08:19:58.518Z,12.96
2023-05-19T08:22:25.225Z,13.08
2023-05-19T08:24:51.971Z,13.46
2023-05-19T08:27:18.649Z,13.61
2023-05-19T08:29:45.518Z,13.73
2023-05-19T08:32:13.357Z,13.70
2023-05-19T08:34:41.487Z,13.49
2023-05-19T08:37:08.365Z,13.25
2023-05-19T08:39:35.362Z,13.25
2023-05-19T08:42:02.494Z,13.19
2023-05-19T08:44:30.946Z,13.08
2023-05-19T08:47:02.805Z,13.11
2023-05-19T08:49:33.441Z,13.20
2023-05-19T08:52:14.239Z,13.17
2023-05-19T08:54:50.952Z,12.98
2023-05-19T08:57:18.849Z,12.94
2023-05-19T08:59:46.101Z,12.61
2023-05-19T09:02:14.537Z,12.43
2023-05-19T09:04:42.258Z,12.40
2023-05-19T09:07:09.525Z,12.44
2023-05-19T09:09:36.268Z,12.58
2023-05-19T09:12:03.228Z,12.48
2023-05-19T09:14:30.862Z,12.51
2023-05-19T09:16:57.785Z,12.38
2023-05-19T09:19:29.026Z,12.09
2023-05-19T09:22:06.406Z,11.90
2023-05-19T09:24:34.730Z,11.99
2023-05-19T09:27:02.269Z,12.31
2023-05-19T09:29:29.049Z,12.64
2023-05-19T09:32:01.031Z,12.69
2023-05-19T09:34:27.943Z,12.74
2023-05-19T09:36:54.714Z,12.40
2023-05-19T09:39:23.118Z,12.13
2023-05-19T09:41:58.553Z,11.98
2023-05-19T09:44:29.889Z,11.89
2023-05-19T09:46:57.287Z,11.99
2023-05-19T09:49:32.804Z,12.07
2023-05-19T09:52:03.325Z,12.02
2023-05-19T09:54:32.317Z,12.16
2023-05-19T09:57:01.019Z,12.35
2023-05-19T09:59:32.496Z,12.31
2023-05-19T10:02:01.343Z,12.31
2023-05-19T10:04:29.506Z,12.35
2023-05-19T10:06:59.853Z,12.27
2023-05-19T10:09:28.970Z,12.34
2023-05-19T10:11:57.232Z,12.44
2023-05-19T10:14:25.825Z,12.53
2023-05-19T10:16:53.839Z,12.74
2023-05-19T10:19:30.035Z,12.59
2023-05-19T10:21:57.134Z,12.20
2023-05-19T10:24:24.025Z,11.97
2023-05-19T10:27:16.651Z,11.99
2023-05-19T10:29:48.985Z,12.04
2023-05-19T10:32:26.784Z,12.08
2023-05-19T10:35:12.037Z,11.99
2023-05-19T10:37:51.280Z,11.97
2023-05-19T10:40:30.370Z,11.95
2023-05-19T10:43:19.219Z,11.89
2023-05-19T10:45:49.502Z,11.90
2023-05-19T10:48:17.282Z,11.93
2023-05-19T10:50:46.270Z,12.06
2023-05-19T10:53:18.568Z,12.14
2023-05-19T10:55:53.256Z,12.12
2023-05-19T10:58:46.139Z,12.05
2023-05-19T11:01:17.211Z,12.02
2023-05-19T11:03:57.280Z,12.08
2023-05-19T11:06:36.209Z,12.09
2023-05-19T11:09:15.234Z,12.16
2023-05-19T11:11:49.889Z,12.15
2023-05-19T11:14:26.817Z,11.94
2023-05-19T11:16:57.740Z,11.73
2023-05-19T11:19:29.254Z,11.76
2023-05-19T11:22:07.623Z,11.82
2023-05-19T11:24:40.386Z,11.93
2023-05-19T11:27:20.242Z,12.13
2023-05-19T11:29:48.458Z,12.00
2023-05-19T11:32:16.104Z,12.02
2023-05-19T11:34:44.921Z,12.07
2023-05-19T11:37:12.382Z,11.79
2023-05-19T11:39:40.235Z,11.66
2023-05-19T11:42:09.818Z,11.77
2023-05-19T11:44:36.821Z,11.98
2023-05-19T11:47:04.464Z,11.88
2023-05-19T11:49:31.541Z,11.71
2023-05-19T11:52:00.941Z,11.76
2023-05-19T11:54:32.934Z,12.00
2023-05-19T11:57:02.761Z,12.07
2023-05-19T11:59:36.101Z,12.18
2023-05-19T12:02:20.823Z,12.15
2023-05-19T12:04:51.186Z,11.99
2023-05-19T12:07:23.549Z,11.86
2023-05-19T12:09:52.088Z,11.93
2023-05-19T12:12:23.062Z,11.96
2023-05-19T12:14:51.558Z,12.13
2023-05-19T12:17:21.512Z,12.25
2023-05-19T12:19:49.260Z,12.29
2023-05-19T12:22:17.345Z,12.24
2023-05-19T12:24:45.262Z,12.44
2023-05-19T12:27:19.625Z,12.67
2023-05-19T12:29:52.317Z,12.75
2023-05-19T12:32:19.742Z,12.67
2023-05-19T12:34:46.484Z,12.70
2023-05-19T12:37:13.222Z,12.76
2023-05-19T12:39:42.520Z,12.76
2023-05-19T12:42:10.818Z,12.80
2023-05-19T12:44:52.697Z,12.83
2023-05-19T12:47:20.485Z,12.93
2023-05-19T12:49:57.493Z,12.92
2023-05-19T12:52:24.527Z,12.76
2023-05-19T12:55:05.121Z,12.86
2023-05-19T12:57:34.902Z,12.93
2023-05-19T13:00:07.203Z,12.76
2023-05-19T13:02:36.192Z,12.63
2023-05-19T13:05:04.882Z,12.76
2023-05-19T13:07:32.201Z,12.99
2023-05-19T13:09:58.942Z,13.06
2023-05-19T13:12:26.207Z,13.25
2023-05-19T13:14:55.435Z,13.47
2023-05-19T13:17:22.380Z,13.41
2023-05-19T13:19:49.209Z,13.12
2023-05-19T13:22:15.948Z,13.23
2023-05-19T13:24:42.716Z,13.43
2023-05-19T13:27:09.429Z,13.52
2023-05-19T13:29:36.143Z,13.37
2023-05-19T13:32:02.852Z,13.18
2023-05-19T13:34:29.609Z,13.09
2023-05-19T13:36:56.818Z,13.13
2023-05-19T13:39:23.928Z,13.09
2023-05-19T13:41:50.690Z,12.88
2023-05-19T13:44:17.426Z,12.84
2023-05-19T13:46:46.076Z,12.88
2023-05-19T13:49:14.177Z,12.79
2023-05-19T13:51:43.793Z,12.81
2023-05-19T13:54:10.711Z,12.74
2023-05-19T13:56:37.590Z,12.83
2023-05-19T13:59:04.913Z,12.91
2023-05-19T14:01:31.832Z,12.96
2023-05-19T14:03:58.746Z,13.02
2023-05-19T14:06:25.791Z,13.10
2023-05-19T14:08:52.486Z,13.22
2023-05-19T14:11:22.721Z,13.30
2023-05-19T14:13:52.488Z,13.46
2023-05-19T14:16:22.014Z,13.63
2023-05-19T14:18:49.550Z,13.59
2023-05-19T14:21:16.375Z,13.57
2023-05-19T14:23:44.467Z,13.63
2023-05-19T14:26:11.173Z,13.62
2023-05-19T14:28:37.973Z,13.51
2023-05-19T14:31:04.800Z,13.41
2023-05-19T14:33:35.040Z,13.52
2023-05-19T14:36:02.432Z,13.62
2023-05-19T14:38:29.613Z,13.63
2023-05-19T14:40:56.813Z,13.57
2023-05-19T14:43:23.689Z,13.66
2023-05-19T14:45:50.451Z,13.74
2023-05-19T14:48:18.068Z,13.86
2023-05-19T14:50:45.053Z,13.83
2023-05-19T14:53:11.858Z,13.96
2023-05-19T14:55:38.671Z,14.04
2023-05-19T14:58:15.931Z,14.12
2023-05-19T15:00:52.400Z,14.30
2023-05-19T15:03:19.806Z,14.45
2023-05-19T15:05:46.784Z,14.49
2023-05-19T15:08:13.783Z,14.52
2023-05-19T15:10:40.731Z,14.45
2023-05-19T15:13:07.470Z,14.47
2023-05-19T15:15:34.295Z,14.41
2023-05-19T15:18:01.170Z,14.60
2023-05-19T15:20:29.526Z,14.67
2023-05-19T15:22:56.386Z,14.75
2023-05-19T15:25:23.084Z,14.79
2023-05-19T15:27:49.809Z,14.79
2023-05-19T15:30:16.563Z,14.82
2023-05-19T15:32:43.370Z,14.65
2023-05-19T15:35:10.121Z,14.51
2023-05-19T15:37:36.838Z,14.40
2023-05-19T15:40:04.466Z,14.26
2023-05-19T15:42:31.610Z,14.19
2023-05-19T15:44:58.315Z,14.15
2023-05-19T15:47:25.015Z,14.12
2023-05-19T15:49:51.848Z,14.15
2023-05-19T15:52:18.669Z,14.19
2023-05-19T15:54:45.445Z,14.23
2023-05-19T15:57:13.564Z,14.30
2023-05-19T15:59:40.382Z,14.33
2023-05-19T16:02:07.873Z,14.40
2023-05-19T16:04:34.652Z,14.50
2023-05-19T16:07:01.426Z,14.58
2023-05-19T16:09:28.139Z,14.61
2023-05-19T16:11:54.839Z,14.64
2023-05-19T16:14:21.599Z,14.63
2023-05-19T16:16:48.348Z,14.60
2023-05-19T16:19:15.128Z,14.63
2023-05-19T16:21:41.831Z,14.68
2023-05-19T16:24:08.640Z,14.59
2023-05-19T16:26:35.477Z,14.55
2023-05-19T16:29:02.217Z,14.58
2023-05-19T16:31:28.946Z,14.53
2023-05-19T16:33:55.735Z,14.56
2023-05-19T16:36:22.981Z,14.56
2023-05-19T16:38:49.716Z,14.54
2023-05-19T16:41:16.378Z,14.58
2023-05-19T16:43:43.196Z,14.61
2023-05-19T16:46:12.133Z,14.62
2023-05-19T16:48:39.142Z,14.64
2023-05-19T16:51:06.440Z,14.59
2023-05-19T16:53:33.159Z,14.52
2023-05-19T16:55:59.905Z,14.49
2023-05-19T16:58:28.016Z,14.48
2023-05-19T17:00:56.955Z,14.47
2023-05-19T17:03:24.104Z,14.47
2023-05-19T17:05:50.992Z,14.34
2023-05-19T17:08:17.756Z,14.39
2023-05-19T17:10:44.935Z,14.40
2023-05-19T17:13:11.835Z,14.37
2023-05-19T17:15:39.302Z,14.39
2023-05-19T17:18:06.761Z,14.37
2023-05-19T17:20:33.817Z,14.30
2023-05-19T17:23:00.600Z,14.34
2023-05-19T17:25:27.312Z,14.30
2023-05-19T17:27:55.174Z,14.31
2023-05-19T17:30:22.019Z,14.29
2023-05-19T17:32:48.927Z,14.32
2023-05-19T17:35:15.799Z,14.32
2023-05-19T17:37:42.557Z,14.36
2023-05-19T17:40:09.787Z,14.39
2023-05-19T17:42:36.479Z,14.39
2023-05-19T17:45:07.520Z,14.36
2023-05-19T17:47:34.562Z,14.31
2023-05-19T17:50:01.309Z,14.36
2023-05-19T17:52:28.299Z,14.36
2023-05-19T17:54:55.292Z,14.42
2023-05-19T17:57:25.408Z,14.46
2023-05-19T17:59:52.418Z,14.40
2023-05-19T18:02:19.349Z,14.46
2023-05-19T18:04:46.466Z,14.39
2023-05-19T18:07:14.256Z,14.36
2023-05-19T18:09:46.096Z,14.36
2023-05-19T18:12:12.831Z,14.29
2023-05-19T18:14:39.976Z,14.30
2023-05-19T18:17:07.137Z,14.22
2023-05-19T18:19:33.851Z,14.11
2023-05-19T18:22:00.841Z,14.12
2023-05-19T18:24:27.502Z,14.05
2023-05-19T18:26:54.272Z,14.04
2023-05-19T18:29:20.958Z,13.97
2023-05-19T18:31:47.746Z,13.87
2023-05-19T18:34:14.462Z,13.85
2023-05-19T18:36:41.685Z,13.82
2023-05-19T18:39:08.372Z,13.68
2023-05-19T18:41:37.422Z,13.72
2023-05-19T18:44:06.007Z,13.72
2023-05-19T18:46:33.724Z,13.65
2023-05-19T18:49:00.574Z,13.62
2023-05-19T18:51:27.286Z,13.60
2023-05-19T18:53:54.047Z,13.52
2023-05-19T18:56:24.814Z,13.50
2023-05-19T18:58:51.989Z,13.45
2023-05-19T19:01:18.836Z,13.42
2023-05-19T19:03:47.075Z,13.44
2023-05-19T19:06:13.909Z,13.37
2023-05-19T19:08:40.614Z,13.39
2023-05-19T19:11:09.444Z,13.36
2023-05-19T19:13:36.302Z,13.33
2023-05-19T19:16:03.493Z,13.28
2023-05-19T19:18:30.232Z,13.23
2023-05-19T19:20:57.743Z,13.19
2023-05-19T19:23:24.659Z,13.23
2023-05-19T19:25:51.383Z,13.21
2023-05-19T19:28:18.158Z,13.16
2023-05-19T19:30:46.331Z,13.08
2023-05-19T19:33:13.136Z,13.16
2023-05-19T19:35:39.980Z,13.11
2023-05-19T19:38:06.705Z,13.09
2023-05-19T19:40:33.895Z,13.07
2023-05-19T19:43:00.946Z,13.09
2023-05-19T19:45:27.617Z,13.06
2023-05-19T19:47:54.422Z,13.08
2023-05-19T19:50:21.339Z,13.02
2023-05-19T19:52:48.055Z,12.99
2023-05-19T19:55:14.862Z,13.02
2023-05-19T19:57:41.646Z,12.95
2023-05-19T20:00:09.213Z,12.92
2023-05-19T20:02:45.622Z,12.92
2023-05-19T20:05:22.590Z,12.94
2023-05-19T20:07:49.582Z,12.95
2023-05-19T20:10:16.659Z,12.83
2023-05-19T20:12:43.698Z,12.83
2023-05-19T20:15:10.956Z,12.81
2023-05-19T20:17:37.722Z,12.80
2023-05-19T20:20:09.900Z,12.77
2023-05-19T20:22:36.675Z,12.86
2023-05-19T20:25:03.630Z,12.74
2023-05-19T20:27:30.334Z,12.67
2023-05-19T20:29:57.173Z,12.72
2023-05-19T20:32:23.896Z,12.68
2023-05-19T20:34:50.858Z,12.66
2023-05-19T20:37:17.605Z,12.67
2023-05-19T20:39:44.416Z,12.65
2023-05-19T20:42:11.387Z,12.64
2023-05-19T20:44:38.166Z,12.59
2023-05-19T20:47:07.874Z,12.55
2023-05-19T20:49:35.287Z,12.52
2023-05-19T20:52:02.316Z,12.60
2023-05-19T20:54:29.136Z,12.51
2023-05-19T20:56:55.881Z,12.49
2023-05-19T20:59:22.622Z,12.50
2023-05-19T21:01:49.451Z,12.51
2023-05-19T21:04:16.255Z,12.55
2023-05-19T21:06:43.107Z,12.56
2023-05-19T21:09:10.804Z,12.52
2023-05-19T21:11:37.696Z,12.57
2023-05-19T21:14:04.583Z,12.54
2023-05-19T21:16:32.049Z,12.54
2023-05-19T21:18:58.924Z,12.51
2023-05-19T21:21:26.231Z,12.58
2023-05-19T21:23:53.039Z,12.48
2023-05-19T21:26:19.783Z,12.46
2023-05-19T21:28:46.454Z,12.39
2023-05-19T21:31:13.232Z,12.41
2023-05-19T21:33:40.005Z,12.35
2023-05-19T21:36:07.062Z,12.36
2023-05-19T21:38:33.851Z,12.45
2023-05-19T21:41:00.699Z,12.37
2023-05-19T21:43:27.472Z,12.35
2023-05-19T21:45:54.154Z,12.28
2023-05-19T21:48:21.671Z,12.25
2023-05-19T21:50:53.912Z,12.30
2023-05-19T21:53:21.023Z,12.29
2023-05-19T21:55:48.338Z,12.25
2023-05-19T21:58:15.106Z,12.27
2023-05-19T22:00:41.888Z,12.21
2023-05-19T22:03:08.828Z,12.25
2023-05-19T22:05:38.125Z,12.15
2023-05-19T22:08:05.155Z,12.16
2023-05-19T22:10:32.245Z,12.20
2023-05-19T22:12:59.209Z,12.21
2023-05-19T22:15:26.755Z,12.26
2023-05-19T22:17:53.482Z,12.27
2023-05-19T22:20:20.603Z,12.19
2023-05-19T22:22:47.290Z,12.21
2023-05-19T22:25:13.948Z,12.18
2023-05-19T22:27:40.603Z,12.21
2023-05-19T22:30:07.910Z,12.23
2023-05-19T22:32:35.312Z,12.22
2023-05-19T22:35:02.054Z,12.26
2023-05-19T22:37:29.058Z,12.27
2023-05-19T22:39:55.729Z,12.29
2023-05-19T22:42:22.429Z,12.30
2023-05-19T22:44:49.168Z,12.28
2023-05-19T22:47:15.962Z,12.29
2023-05-19T22:49:43.293Z,12.25
2023-05-19T22:52:11.095Z,12.24
2023-05-19T22:54:38.035Z,12.23
2023-05-19T22:57:05.264Z,12.23
2023-05-19T22:59:32.085Z,12.27
2023-05-19T23:01:58.739Z,12.21
2023-05-19T23:04:25.745Z,12.21
2023-05-19T23:06:52.720Z,12.21
2023-05-19T23:09:19.433Z,12.20
2023-05-19T23:11:46.350Z,12.14
2023-05-19T23:14:13.529Z,12.14
2023-05-19T23:16:40.231Z,12.11
2023-05-19T23:19:07.340Z,12.11
2023-05-19T23:21:34.085Z,12.12
2023-05-19T23:24:01.025Z,12.12
2023-05-19T23:26:27.705Z,12.12
2023-05-19T23:28:54.404Z,12.11
2023-05-19T23:31:21.129Z,12.09
2023-05-19T23:33:47.845Z,12.16
2023-05-19T23:36:14.554Z,12.09
2023-05-19T23:38:41.297Z,12.08
2023-05-19T23:41:08.030Z,12.09
2023-05-19T23:43:34.769Z,12.09
2023-05-19T23:46:01.730Z,12.15
2023-05-19T23:48:29.376Z,12.16
2023-05-19T23:50:57.410Z,12.12
2023-05-19T23:53:24.640Z,12.13
2023-05-19T23:55:51.715Z,12.09
2023-05-19T23:58:18.693Z,12.09
